sensor_id;sensor_type;location;lat;lon;timestamp;P1;durP1;ratioP1;P2;durP2;ratioP2
13374;SDS011;6756;51.354;15.754;2023-03-21T00:01:29;36.30;;;18.93;;
13374;SDS011;6756;51.354;15.754;2023-03-21T00:05:30;33.50;;;18.57;;
13374;SDS011;6756;51.354;15.754;2023-03-21T00:09:31;33.50;;;18.43;;
13374;SDS011;6756;51.354;15.754;2023-03-21T00:13:32;32.17;;;19.10;;
13374;SDS011;6756;51.354;15.754;2023-03-21T00:17:37;27.63;;;17.03;;
13374;SDS011;6756;51.354;15.754;2023-03-21T00:21:38;31.00;;;18.13;;
13374;SDS011;6756;51.354;15.754;2023-03-21T00:25:42;33.97;;;18.80;;
13374;SDS011;6756;51.354;15.754;2023-03-21T00:29:42;29.13;;;17.60;;
13374;SDS011;6756;51.354;15.754;2023-03-21T00:33:43;36.83;;;20.43;;
13374;SDS011;6756;51.354;15.754;2023-03-21T00:37:44;35.20;;;20.40;;
13374;SDS011;6756;51.354;15.754;2023-03-21T00:41:45;37.03;;;19.23;;
13374;SDS011;6756;51.354;15.754;2023-03-21T00:45:46;35.70;;;20.83;;
13374;SDS011;6756;51.354;15.754;2023-03-21T00:49:48;43.00;;;23.50;;
13374;SDS011;6756;51.354;15.754;2023-03-21T00:53:48;38.60;;;21.43;;
13374;SDS011;6756;51.354;15.754;2023-03-21T00:57:49;40.93;;;22.77;;
13374;SDS011;6756;51.354;15.754;2023-03-21T01:01:50;41.50;;;21.67;;
13374;SDS011;6756;51.354;15.754;2023-03-21T01:05:52;42.60;;;23.70;;
13374;SDS011;6756;51.354;15.754;2023-03-21T01:10:06;44.43;;;24.33;;
13374;SDS011;6756;51.354;15.754;2023-03-21T01:14:07;46.50;;;22.83;;
13374;SDS011;6756;51.354;15.754;2023-03-21T01:18:08;43.53;;;24.63;;
13374;SDS011;6756;51.354;15.754;2023-03-21T01:22:09;44.03;;;25.03;;
13374;SDS011;6756;51.354;15.754;2023-03-21T01:26:11;44.97;;;23.47;;
13374;SDS011;6756;51.354;15.754;2023-03-21T01:30:12;43.30;;;23.87;;
13374;SDS011;6756;51.354;15.754;2023-03-21T01:34:13;42.73;;;23.97;;
13374;SDS011;6756;51.354;15.754;2023-03-21T01:38:14;43.80;;;23.67;;
13374;SDS011;6756;51.354;15.754;2023-03-21T01:42:15;44.33;;;23.00;;
13374;SDS011;6756;51.354;15.754;2023-03-21T01:50:24;37.63;;;20.43;;
13374;SDS011;6756;51.354;15.754;2023-03-21T01:54:28;38.87;;;22.33;;
13374;SDS011;6756;51.354;15.754;2023-03-21T01:58:33;40.53;;;23.30;;
13374;SDS011;6756;51.354;15.754;2023-03-21T02:02:34;37.00;;;22.60;;
13374;SDS011;6756;51.354;15.754;2023-03-21T02:10:49;34.63;;;20.57;;
13374;SDS011;6756;51.354;15.754;2023-03-21T02:14:50;36.53;;;21.77;;
13374;SDS011;6756;51.354;15.754;2023-03-21T02:18:58;45.73;;;24.43;;
13374;SDS011;6756;51.354;15.754;2023-03-21T02:23:23;43.37;;;23.23;;
13374;SDS011;6756;51.354;15.754;2023-03-21T02:27:42;42.27;;;23.83;;
13374;SDS011;6756;51.354;15.754;2023-03-21T02:36:21;47.87;;;24.87;;
13374;SDS011;6756;51.354;15.754;2023-03-21T02:41:03;42.73;;;23.17;;
13374;SDS011;6756;51.354;15.754;2023-03-21T02:53:22;43.30;;;24.37;;
13374;SDS011;6756;51.354;15.754;2023-03-21T02:57:26;44.77;;;25.10;;
13374;SDS011;6756;51.354;15.754;2023-03-21T03:01:27;44.73;;;24.60;;
13374;SDS011;6756;51.354;15.754;2023-03-21T03:05:29;43.60;;;23.20;;
13374;SDS011;6756;51.354;15.754;2023-03-21T03:22:37;48.70;;;24.13;;
13374;SDS011;6756;51.354;15.754;2023-03-21T03:27:09;47.80;;;24.83;;
13374;SDS011;6756;51.354;15.754;2023-03-21T03:31:15;39.60;;;21.70;;
13374;SDS011;6756;51.354;15.754;2023-03-21T03:35:20;43.50;;;23.67;;
13374;SDS011;6756;51.354;15.754;2023-03-21T03:39:32;39.07;;;23.33;;
13374;SDS011;6756;51.354;15.754;2023-03-21T03:43:38;35.67;;;21.03;;
13374;SDS011;6756;51.354;15.754;2023-03-21T03:47:52;41.87;;;23.00;;
13374;SDS011;6756;51.354;15.754;2023-03-21T03:52:07;33.80;;;20.33;;
13374;SDS011;6756;51.354;15.754;2023-03-21T03:56:12;37.73;;;21.20;;
13374;SDS011;6756;51.354;15.754;2023-03-21T04:00:14;34.80;;;19.47;;
13374;SDS011;6756;51.354;15.754;2023-03-21T04:04:16;40.93;;;22.53;;
13374;SDS011;6756;51.354;15.754;2023-03-21T04:08:17;40.50;;;23.80;;
13374;SDS011;6756;51.354;15.754;2023-03-21T04:12:17;44.43;;;24.57;;
13374;SDS011;6756;51.354;15.754;2023-03-21T04:16:18;44.53;;;24.13;;
13374;SDS011;6756;51.354;15.754;2023-03-21T04:20:19;40.57;;;22.77;;
13374;SDS011;6756;51.354;15.754;2023-03-21T04:24:20;38.10;;;22.43;;
13374;SDS011;6756;51.354;15.754;2023-03-21T04:28:21;37.23;;;22.20;;
13374;SDS011;6756;51.354;15.754;2023-03-21T04:32:22;40.17;;;23.27;;
13374;SDS011;6756;51.354;15.754;2023-03-21T04:36:23;38.10;;;22.83;;
13374;SDS011;6756;51.354;15.754;2023-03-21T04:40:26;37.87;;;22.27;;
13374;SDS011;6756;51.354;15.754;2023-03-21T04:44:27;49.63;;;26.60;;
13374;SDS011;6756;51.354;15.754;2023-03-21T04:48:28;40.20;;;24.50;;
13374;SDS011;6756;51.354;15.754;2023-03-21T04:52:29;43.07;;;25.53;;
13374;SDS011;6756;51.354;15.754;2023-03-21T04:56:30;46.50;;;26.63;;
13374;SDS011;6756;51.354;15.754;2023-03-21T05:00:35;43.10;;;24.80;;
13374;SDS011;6756;51.354;15.754;2023-03-21T05:04:38;43.93;;;24.37;;
13374;SDS011;6756;51.354;15.754;2023-03-21T05:08:39;50.47;;;27.90;;
13374;SDS011;6756;51.354;15.754;2023-03-21T05:12:41;44.17;;;26.77;;
13374;SDS011;6756;51.354;15.754;2023-03-21T05:16:42;40.43;;;25.37;;
13374;SDS011;6756;51.354;15.754;2023-03-21T05:20:47;42.60;;;25.63;;
13374;SDS011;6756;51.354;15.754;2023-03-21T05:24:53;38.63;;;24.23;;
13374;SDS011;6756;51.354;15.754;2023-03-21T05:28:54;35.47;;;22.57;;
13374;SDS011;6756;51.354;15.754;2023-03-21T05:32:55;33.03;;;21.23;;
13374;SDS011;6756;51.354;15.754;2023-03-21T05:36:56;33.23;;;20.77;;
13374;SDS011;6756;51.354;15.754;2023-03-21T05:40:57;35.93;;;21.47;;
13374;SDS011;6756;51.354;15.754;2023-03-21T05:44:58;37.60;;;22.43;;
13374;SDS011;6756;51.354;15.754;2023-03-21T05:48:59;35.80;;;22.67;;
13374;SDS011;6756;51.354;15.754;2023-03-21T05:53:00;46.87;;;27.10;;
13374;SDS011;6756;51.354;15.754;2023-03-21T05:57:02;38.07;;;25.97;;
13374;SDS011;6756;51.354;15.754;2023-03-21T06:01:03;40.90;;;26.00;;
13374;SDS011;6756;51.354;15.754;2023-03-21T06:05:04;42.33;;;26.33;;
13374;SDS011;6756;51.354;15.754;2023-03-21T06:09:05;41.77;;;26.13;;
13374;SDS011;6756;51.354;15.754;2023-03-21T06:13:06;40.43;;;26.57;;
13374;SDS011;6756;51.354;15.754;2023-03-21T06:17:07;33.70;;;23.70;;
13374;SDS011;6756;51.354;15.754;2023-03-21T06:21:08;34.10;;;23.97;;
13374;SDS011;6756;51.354;15.754;2023-03-21T06:25:09;37.63;;;24.63;;
13374;SDS011;6756;51.354;15.754;2023-03-21T06:29:10;36.43;;;23.93;;
13374;SDS011;6756;51.354;15.754;2023-03-21T06:33:11;35.67;;;22.67;;
13374;SDS011;6756;51.354;15.754;2023-03-21T06:37:12;39.40;;;25.33;;
13374;SDS011;6756;51.354;15.754;2023-03-21T06:41:13;37.13;;;25.07;;
13374;SDS011;6756;51.354;15.754;2023-03-21T06:45:14;36.97;;;24.90;;
13374;SDS011;6756;51.354;15.754;2023-03-21T06:49:15;35.43;;;25.27;;
13374;SDS011;6756;51.354;15.754;2023-03-21T06:53:17;34.23;;;24.27;;
13374;SDS011;6756;51.354;15.754;2023-03-21T06:57:20;36.77;;;24.90;;
13374;SDS011;6756;51.354;15.754;2023-03-21T07:01:21;33.17;;;23.80;;
13374;SDS011;6756;51.354;15.754;2023-03-21T07:05:22;36.70;;;25.73;;
13374;SDS011;6756;51.354;15.754;2023-03-21T07:09:23;36.43;;;25.07;;
13374;SDS011;6756;51.354;15.754;2023-03-21T07:13:27;33.97;;;24.97;;
13374;SDS011;6756;51.354;15.754;2023-03-21T07:17:27;32.43;;;23.93;;
13374;SDS011;6756;51.354;15.754;2023-03-21T07:21:28;33.00;;;23.53;;
13374;SDS011;6756;51.354;15.754;2023-03-21T07:25:29;35.67;;;25.03;;
13374;SDS011;6756;51.354;15.754;2023-03-21T07:29:30;35.60;;;24.93;;
13374;SDS011;6756;51.354;15.754;2023-03-21T07:33:31;35.83;;;24.73;;
13374;SDS011;6756;51.354;15.754;2023-03-21T07:37:33;33.00;;;24.90;;
13374;SDS011;6756;51.354;15.754;2023-03-21T07:41:33;34.07;;;24.53;;
13374;SDS011;6756;51.354;15.754;2023-03-21T07:45:34;35.00;;;25.00;;
13374;SDS011;6756;51.354;15.754;2023-03-21T07:49:35;32.37;;;23.00;;
13374;SDS011;6756;51.354;15.754;2023-03-21T07:53:36;32.07;;;24.43;;
13374;SDS011;6756;51.354;15.754;2023-03-21T07:57:38;35.37;;;25.67;;
13374;SDS011;6756;51.354;15.754;2023-03-21T08:01:39;38.90;;;25.10;;
13374;SDS011;6756;51.354;15.754;2023-03-21T08:05:40;34.17;;;25.17;;
13374;SDS011;6756;51.354;15.754;2023-03-21T08:09:44;32.37;;;24.60;;
13374;SDS011;6756;51.354;15.754;2023-03-21T08:13:45;32.37;;;23.77;;
13374;SDS011;6756;51.354;15.754;2023-03-21T08:17:46;30.73;;;22.63;;
13374;SDS011;6756;51.354;15.754;2023-03-21T08:21:47;31.00;;;23.90;;
13374;SDS011;6756;51.354;15.754;2023-03-21T08:25:52;29.23;;;22.13;;
13374;SDS011;6756;51.354;15.754;2023-03-21T08:29:53;28.33;;;21.33;;
13374;SDS011;6756;51.354;15.754;2023-03-21T08:33:54;28.97;;;21.20;;
13374;SDS011;6756;51.354;15.754;2023-03-21T08:37:55;27.60;;;21.17;;
13374;SDS011;6756;51.354;15.754;2023-03-21T08:41:57;32.73;;;22.00;;
13374;SDS011;6756;51.354;15.754;2023-03-21T08:45:57;30.53;;;21.93;;
13374;SDS011;6756;51.354;15.754;2023-03-21T08:49:58;21.07;;;17.87;;
13374;SDS011;6756;51.354;15.754;2023-03-21T08:53:59;26.63;;;19.93;;
13374;SDS011;6756;51.354;15.754;2023-03-21T08:58:00;22.77;;;18.90;;
13374;SDS011;6756;51.354;15.754;2023-03-21T09:02:01;26.13;;;20.73;;
13374;SDS011;6756;51.354;15.754;2023-03-21T09:06:02;28.50;;;21.00;;
13374;SDS011;6756;51.354;15.754;2023-03-21T09:10:05;28.53;;;21.70;;
13374;SDS011;6756;51.354;15.754;2023-03-21T09:14:07;23.90;;;17.23;;
13374;SDS011;6756;51.354;15.754;2023-03-21T09:18:08;27.93;;;20.93;;
13374;SDS011;6756;51.354;15.754;2023-03-21T09:22:12;29.97;;;22.63;;
13374;SDS011;6756;51.354;15.754;2023-03-21T09:26:17;30.83;;;23.67;;
13374;SDS011;6756;51.354;15.754;2023-03-21T09:30:19;30.67;;;22.43;;
13374;SDS011;6756;51.354;15.754;2023-03-21T09:34:21;36.90;;;25.47;;
13374;SDS011;6756;51.354;15.754;2023-03-21T09:38:22;30.63;;;20.97;;
13374;SDS011;6756;51.354;15.754;2023-03-21T09:42:41;30.00;;;20.57;;
13374;SDS011;6756;51.354;15.754;2023-03-21T09:47:13;23.53;;;19.07;;
13374;SDS011;6756;51.354;15.754;2023-03-21T09:51:20;23.87;;;19.67;;
13374;SDS011;6756;51.354;15.754;2023-03-21T09:55:29;31.33;;;25.20;;
13374;SDS011;6756;51.354;15.754;2023-03-21T09:59:35;30.00;;;23.37;;
13374;SDS011;6756;51.354;15.754;2023-03-21T10:03:41;29.57;;;23.07;;
13374;SDS011;6756;51.354;15.754;2023-03-21T10:07:53;22.03;;;18.83;;
13374;SDS011;6756;51.354;15.754;2023-03-21T10:12:11;30.90;;;23.67;;
13374;SDS011;6756;51.354;15.754;2023-03-21T10:16:25;26.77;;;21.30;;
13374;SDS011;6756;51.354;15.754;2023-03-21T10:20:29;33.87;;;22.63;;
13374;SDS011;6756;51.354;15.754;2023-03-21T10:24:33;28.47;;;22.40;;
13374;SDS011;6756;51.354;15.754;2023-03-21T10:28:35;35.90;;;23.90;;
13374;SDS011;6756;51.354;15.754;2023-03-21T10:32:39;24.20;;;18.93;;
13374;SDS011;6756;51.354;15.754;2023-03-21T10:36:40;25.23;;;20.23;;
13374;SDS011;6756;51.354;15.754;2023-03-21T10:40:41;26.70;;;21.17;;
13374;SDS011;6756;51.354;15.754;2023-03-21T10:44:42;23.03;;;19.73;;
13374;SDS011;6756;51.354;15.754;2023-03-21T10:48:52;23.87;;;19.10;;
13374;SDS011;6756;51.354;15.754;2023-03-21T10:52:54;22.77;;;19.13;;
13374;SDS011;6756;51.354;15.754;2023-03-21T10:57:02;22.20;;;18.53;;
13374;SDS011;6756;51.354;15.754;2023-03-21T11:01:09;27.77;;;20.57;;
13374;SDS011;6756;51.354;15.754;2023-03-21T11:05:19;24.67;;;20.30;;
13374;SDS011;6756;51.354;15.754;2023-03-21T11:09:26;27.30;;;21.03;;
13374;SDS011;6756;51.354;15.754;2023-03-21T11:14:00;24.00;;;20.20;;
13374;SDS011;6756;51.354;15.754;2023-03-21T11:18:13;27.47;;;22.40;;
13374;SDS011;6756;51.354;15.754;2023-03-21T11:22:18;27.00;;;22.37;;
13374;SDS011;6756;51.354;15.754;2023-03-21T11:26:26;32.23;;;23.27;;
13374;SDS011;6756;51.354;15.754;2023-03-21T11:30:31;32.83;;;24.87;;
13374;SDS011;6756;51.354;15.754;2023-03-21T11:34:37;27.77;;;20.57;;
13374;SDS011;6756;51.354;15.754;2023-03-21T11:39:11;23.63;;;18.90;;
13374;SDS011;6756;51.354;15.754;2023-03-21T11:43:37;32.77;;;22.43;;
13374;SDS011;6756;51.354;15.754;2023-03-21T11:47:38;23.07;;;18.77;;
13374;SDS011;6756;51.354;15.754;2023-03-21T11:51:40;20.77;;;17.27;;
13374;SDS011;6756;51.354;15.754;2023-03-21T12:00:28;19.57;;;16.40;;
13374;SDS011;6756;51.354;15.754;2023-03-21T12:08:53;22.33;;;17.53;;
13374;SDS011;6756;51.354;15.754;2023-03-21T12:17:33;17.57;;;13.90;;
13374;SDS011;6756;51.354;15.754;2023-03-21T12:31:03;23.13;;;17.57;;
13374;SDS011;6756;51.354;15.754;2023-03-21T12:39:16;20.10;;;16.27;;
13374;SDS011;6756;51.354;15.754;2023-03-21T12:47:51;18.13;;;14.30;;
13374;SDS011;6756;51.354;15.754;2023-03-21T12:52:01;20.10;;;15.80;;
13374;SDS011;6756;51.354;15.754;2023-03-21T12:56:12;20.13;;;15.87;;
13374;SDS011;6756;51.354;15.754;2023-03-21T13:00:24;20.13;;;16.37;;
13374;SDS011;6756;51.354;15.754;2023-03-21T13:09:02;20.70;;;15.60;;
13374;SDS011;6756;51.354;15.754;2023-03-21T13:22:25;26.40;;;20.63;;
13374;SDS011;6756;51.354;15.754;2023-03-21T13:39:41;20.80;;;16.33;;
13374;SDS011;6756;51.354;15.754;2023-03-21T13:48:04;25.37;;;19.43;;
13374;SDS011;6756;51.354;15.754;2023-03-21T13:52:25;19.30;;;16.30;;
13374;SDS011;6756;51.354;15.754;2023-03-21T13:56:27;17.90;;;15.13;;
13374;SDS011;6756;51.354;15.754;2023-03-21T14:00:29;18.53;;;14.77;;
13374;SDS011;6756;51.354;15.754;2023-03-21T14:04:31;17.53;;;15.13;;
13374;SDS011;6756;51.354;15.754;2023-03-21T14:08:33;17.83;;;15.73;;
13374;SDS011;6756;51.354;15.754;2023-03-21T14:12:36;16.20;;;13.03;;
13374;SDS011;6756;51.354;15.754;2023-03-21T14:16:39;17.10;;;13.93;;
13374;SDS011;6756;51.354;15.754;2023-03-21T14:20:41;15.87;;;13.90;;
13374;SDS011;6756;51.354;15.754;2023-03-21T14:24:58;17.47;;;14.10;;
13374;SDS011;6756;51.354;15.754;2023-03-21T14:29:03;13.17;;;11.67;;
13374;SDS011;6756;51.354;15.754;2023-03-21T14:33:26;13.87;;;11.63;;
13374;SDS011;6756;51.354;15.754;2023-03-21T14:37:37;13.53;;;11.47;;
13374;SDS011;6756;51.354;15.754;2023-03-21T14:41:48;13.53;;;11.60;;
13374;SDS011;6756;51.354;15.754;2023-03-21T14:45:52;12.60;;;11.27;;
13374;SDS011;6756;51.354;15.754;2023-03-21T14:49:55;15.70;;;12.77;;
13374;SDS011;6756;51.354;15.754;2023-03-21T14:53:57;19.00;;;15.20;;
13374;SDS011;6756;51.354;15.754;2023-03-21T14:57:57;15.37;;;12.90;;
13374;SDS011;6756;51.354;15.754;2023-03-21T15:02:00;20.57;;;15.73;;
13374;SDS011;6756;51.354;15.754;2023-03-21T15:06:03;19.53;;;16.60;;
13374;SDS011;6756;51.354;15.754;2023-03-21T15:10:14;19.77;;;15.53;;
13374;SDS011;6756;51.354;15.754;2023-03-21T15:14:17;18.50;;;15.77;;
13374;SDS011;6756;51.354;15.754;2023-03-21T15:18:24;17.50;;;15.07;;
13374;SDS011;6756;51.354;15.754;2023-03-21T15:22:32;18.37;;;14.23;;
13374;SDS011;6756;51.354;15.754;2023-03-21T15:26:38;18.47;;;14.80;;
13374;SDS011;6756;51.354;15.754;2023-03-21T15:30:45;17.37;;;14.70;;
13374;SDS011;6756;51.354;15.754;2023-03-21T15:34:49;78.93;;;31.03;;
13374;SDS011;6756;51.354;15.754;2023-03-21T15:38:53;23.00;;;15.90;;
13374;SDS011;6756;51.354;15.754;2023-03-21T15:43:13;18.47;;;14.43;;
13374;SDS011;6756;51.354;15.754;2023-03-21T15:51:53;26.00;;;15.80;;
13374;SDS011;6756;51.354;15.754;2023-03-21T15:56:04;19.53;;;14.43;;
13374;SDS011;6756;51.354;15.754;2023-03-21T16:04:17;18.80;;;15.63;;
13374;SDS011;6756;51.354;15.754;2023-03-21T16:08:20;19.63;;;15.30;;
13374;SDS011;6756;51.354;15.754;2023-03-21T16:12:25;20.80;;;16.27;;
13374;SDS011;6756;51.354;15.754;2023-03-21T16:16:27;22.87;;;16.70;;
13374;SDS011;6756;51.354;15.754;2023-03-21T16:20:37;20.43;;;16.27;;
13374;SDS011;6756;51.354;15.754;2023-03-21T16:24:41;17.43;;;14.03;;
13374;SDS011;6756;51.354;15.754;2023-03-21T16:28:42;19.10;;;15.47;;
13374;SDS011;6756;51.354;15.754;2023-03-21T16:32:43;18.93;;;14.87;;
13374;SDS011;6756;51.354;15.754;2023-03-21T16:36:45;21.10;;;16.80;;
13374;SDS011;6756;51.354;15.754;2023-03-21T16:40:46;17.43;;;14.03;;
13374;SDS011;6756;51.354;15.754;2023-03-21T16:44:47;18.93;;;15.07;;
13374;SDS011;6756;51.354;15.754;2023-03-21T16:48:49;22.30;;;17.80;;
13374;SDS011;6756;51.354;15.754;2023-03-21T16:52:54;25.10;;;18.17;;
13374;SDS011;6756;51.354;15.754;2023-03-21T16:56:56;22.20;;;17.70;;
13374;SDS011;6756;51.354;15.754;2023-03-21T17:00:58;21.37;;;17.10;;
13374;SDS011;6756;51.354;15.754;2023-03-21T17:05:00;20.60;;;15.70;;
13374;SDS011;6756;51.354;15.754;2023-03-21T17:09:00;22.33;;;18.40;;
13374;SDS011;6756;51.354;15.754;2023-03-21T17:13:03;22.40;;;16.30;;
13374;SDS011;6756;51.354;15.754;2023-03-21T17:17:04;22.00;;;17.17;;
13374;SDS011;6756;51.354;15.754;2023-03-21T17:21:12;19.67;;;15.17;;
13374;SDS011;6756;51.354;15.754;2023-03-21T17:25:15;22.27;;;16.40;;
13374;SDS011;6756;51.354;15.754;2023-03-21T17:29:16;24.10;;;19.07;;
13374;SDS011;6756;51.354;15.754;2023-03-21T17:33:17;25.53;;;18.67;;
13374;SDS011;6756;51.354;15.754;2023-03-21T17:37:18;24.20;;;17.93;;
13374;SDS011;6756;51.354;15.754;2023-03-21T17:41:21;24.83;;;18.70;;
13374;SDS011;6756;51.354;15.754;2023-03-21T17:45:21;28.40;;;20.30;;
13374;SDS011;6756;51.354;15.754;2023-03-21T17:49:23;29.00;;;20.43;;
13374;SDS011;6756;51.354;15.754;2023-03-21T17:53:24;34.13;;;22.57;;
13374;SDS011;6756;51.354;15.754;2023-03-21T17:57:25;34.00;;;24.10;;
13374;SDS011;6756;51.354;15.754;2023-03-21T18:01:26;34.17;;;24.17;;
13374;SDS011;6756;51.354;15.754;2023-03-21T18:05:30;33.10;;;23.23;;
13374;SDS011;6756;51.354;15.754;2023-03-21T18:09:31;33.03;;;23.70;;
13374;SDS011;6756;51.354;15.754;2023-03-21T18:13:32;33.13;;;23.87;;
13374;SDS011;6756;51.354;15.754;2023-03-21T18:17:33;33.33;;;24.10;;
13374;SDS011;6756;51.354;15.754;2023-03-21T18:21:34;37.90;;;26.00;;
13374;SDS011;6756;51.354;15.754;2023-03-21T18:25:36;36.80;;;24.93;;
13374;SDS011;6756;51.354;15.754;2023-03-21T18:29:37;35.50;;;24.37;;
13374;SDS011;6756;51.354;15.754;2023-03-21T18:33:39;34.03;;;23.50;;
13374;SDS011;6756;51.354;15.754;2023-03-21T18:37:41;36.90;;;25.37;;
13374;SDS011;6756;51.354;15.754;2023-03-21T18:41:42;36.73;;;24.93;;
13374;SDS011;6756;51.354;15.754;2023-03-21T18:45:43;38.73;;;27.53;;
13374;SDS011;6756;51.354;15.754;2023-03-21T18:49:44;40.40;;;26.83;;
13374;SDS011;6756;51.354;15.754;2023-03-21T18:53:45;42.97;;;29.07;;
13374;SDS011;6756;51.354;15.754;2023-03-21T18:57:46;44.70;;;29.57;;
13374;SDS011;6756;51.354;15.754;2023-03-21T19:01:47;46.20;;;32.67;;
13374;SDS011;6756;51.354;15.754;2023-03-21T19:05:49;48.23;;;31.73;;
13374;SDS011;6756;51.354;15.754;2023-03-21T19:09:50;51.30;;;33.10;;
13374;SDS011;6756;51.354;15.754;2023-03-21T19:13:54;50.00;;;32.17;;
13374;SDS011;6756;51.354;15.754;2023-03-21T19:17:55;51.70;;;34.23;;
13374;SDS011;6756;51.354;15.754;2023-03-21T19:21:56;49.17;;;33.43;;
13374;SDS011;6756;51.354;15.754;2023-03-21T19:25:57;52.90;;;33.83;;
13374;SDS011;6756;51.354;15.754;2023-03-21T19:29:58;47.83;;;34.00;;
13374;SDS011;6756;51.354;15.754;2023-03-21T19:34:00;49.30;;;32.57;;
13374;SDS011;6756;51.354;15.754;2023-03-21T19:38:02;53.17;;;35.23;;
13374;SDS011;6756;51.354;15.754;2023-03-21T19:42:03;53.67;;;37.60;;
13374;SDS011;6756;51.354;15.754;2023-03-21T19:46:04;55.60;;;37.80;;
13374;SDS011;6756;51.354;15.754;2023-03-21T19:50:05;49.33;;;35.23;;
13374;SDS011;6756;51.354;15.754;2023-03-21T19:54:07;56.93;;;36.93;;
13374;SDS011;6756;51.354;15.754;2023-03-21T19:58:08;57.63;;;38.37;;
13374;SDS011;6756;51.354;15.754;2023-03-21T20:02:10;54.43;;;38.13;;
13374;SDS011;6756;51.354;15.754;2023-03-21T20:06:11;62.33;;;39.50;;
13374;SDS011;6756;51.354;15.754;2023-03-21T20:10:13;59.47;;;39.33;;
13374;SDS011;6756;51.354;15.754;2023-03-21T20:14:14;60.33;;;38.43;;
13374;SDS011;6756;51.354;15.754;2023-03-21T20:18:15;58.47;;;39.17;;
13374;SDS011;6756;51.354;15.754;2023-03-21T20:22:16;56.63;;;38.03;;
13374;SDS011;6756;51.354;15.754;2023-03-21T20:26:17;59.37;;;38.23;;
13374;SDS011;6756;51.354;15.754;2023-03-21T20:30:19;59.47;;;39.43;;
13374;SDS011;6756;51.354;15.754;2023-03-21T20:34:20;58.67;;;37.53;;
13374;SDS011;6756;51.354;15.754;2023-03-21T20:38:21;56.97;;;36.53;;
13374;SDS011;6756;51.354;15.754;2023-03-21T20:42:22;59.87;;;37.60;;
13374;SDS011;6756;51.354;15.754;2023-03-21T20:46:24;55.70;;;37.43;;
13374;SDS011;6756;51.354;15.754;2023-03-21T20:50:25;56.90;;;36.83;;
13374;SDS011;6756;51.354;15.754;2023-03-21T20:54:30;52.87;;;35.63;;
13374;SDS011;6756;51.354;15.754;2023-03-21T20:58:35;55.80;;;36.03;;
13374;SDS011;6756;51.354;15.754;2023-03-21T21:02:38;57.33;;;36.30;;
13374;SDS011;6756;51.354;15.754;2023-03-21T21:06:40;61.30;;;36.80;;
13374;SDS011;6756;51.354;15.754;2023-03-21T21:10:41;52.77;;;34.23;;
13374;SDS011;6756;51.354;15.754;2023-03-21T21:14:44;54.53;;;35.83;;
13374;SDS011;6756;51.354;15.754;2023-03-21T21:18:45;59.47;;;37.83;;
13374;SDS011;6756;51.354;15.754;2023-03-21T21:22:48;59.33;;;37.07;;
13374;SDS011;6756;51.354;15.754;2023-03-21T21:26:49;52.47;;;33.80;;
13374;SDS011;6756;51.354;15.754;2023-03-21T21:30:50;60.40;;;38.27;;
13374;SDS011;6756;51.354;15.754;2023-03-21T21:34:52;56.10;;;36.57;;
13374;SDS011;6756;51.354;15.754;2023-03-21T21:38:53;53.60;;;34.73;;
13374;SDS011;6756;51.354;15.754;2023-03-21T21:42:55;53.57;;;35.50;;
13374;SDS011;6756;51.354;15.754;2023-03-21T21:47:02;54.77;;;35.03;;
13374;SDS011;6756;51.354;15.754;2023-03-21T21:51:07;55.93;;;34.73;;
13374;SDS011;6756;51.354;15.754;2023-03-21T21:55:09;57.70;;;35.80;;
13374;SDS011;6756;51.354;15.754;2023-03-21T21:59:10;63.33;;;37.23;;
13374;SDS011;6756;51.354;15.754;2023-03-21T22:03:15;56.80;;;35.40;;
13374;SDS011;6756;51.354;15.754;2023-03-21T22:07:21;55.53;;;35.20;;
13374;SDS011;6756;51.354;15.754;2023-03-21T22:11:25;51.40;;;32.37;;
13374;SDS011;6756;51.354;15.754;2023-03-21T22:15:26;52.80;;;33.63;;
13374;SDS011;6756;51.354;15.754;2023-03-21T22:19:27;57.10;;;33.97;;
13374;SDS011;6756;51.354;15.754;2023-03-21T22:23:28;51.80;;;33.63;;
13374;SDS011;6756;51.354;15.754;2023-03-21T22:27:29;54.30;;;34.67;;
13374;SDS011;6756;51.354;15.754;2023-03-21T22:31:30;51.60;;;33.50;;
13374;SDS011;6756;51.354;15.754;2023-03-21T22:35:31;56.03;;;34.97;;
13374;SDS011;6756;51.354;15.754;2023-03-21T22:39:32;52.47;;;34.07;;
13374;SDS011;6756;51.354;15.754;2023-03-21T22:43:33;53.40;;;33.87;;
13374;SDS011;6756;51.354;15.754;2023-03-21T22:47:34;47.20;;;31.77;;
13374;SDS011;6756;51.354;15.754;2023-03-21T22:51:36;54.00;;;34.13;;
13374;SDS011;6756;51.354;15.754;2023-03-21T22:55:37;58.00;;;35.17;;
13374;SDS011;6756;51.354;15.754;2023-03-21T22:59:38;48.13;;;32.07;;
13374;SDS011;6756;51.354;15.754;2023-03-21T23:03:39;51.27;;;31.97;;
13374;SDS011;6756;51.354;15.754;2023-03-21T23:07:41;47.93;;;30.03;;
13374;SDS011;6756;51.354;15.754;2023-03-21T23:11:41;53.43;;;33.17;;
13374;SDS011;6756;51.354;15.754;2023-03-21T23:15:45;49.67;;;33.33;;
13374;SDS011;6756;51.354;15.754;2023-03-21T23:19:46;50.83;;;32.37;;
13374;SDS011;6756;51.354;15.754;2023-03-21T23:23:47;50.23;;;32.00;;
13374;SDS011;6756;51.354;15.754;2023-03-21T23:27:48;47.77;;;31.00;;
13374;SDS011;6756;51.354;15.754;2023-03-21T23:31:50;45.53;;;29.67;;
13374;SDS011;6756;51.354;15.754;2023-03-21T23:35:50;51.20;;;31.33;;
13374;SDS011;6756;51.354;15.754;2023-03-21T23:39:51;45.73;;;29.93;;
13374;SDS011;6756;51.354;15.754;2023-03-21T23:43:54;42.50;;;27.97;;
13374;SDS011;6756;51.354;15.754;2023-03-21T23:47:55;43.10;;;28.27;;
13374;SDS011;6756;51.354;15.754;2023-03-21T23:51:56;42.43;;;28.07;;
13374;SDS011;6756;51.354;15.754;2023-03-21T23:55:56;41.90;;;27.57;;
13374;SDS011;6756;51.354;15.754;2023-03-21T23:59:58;39.50;;;26.93;;
